Terminal Aerodrome Forecast
Issued by NWS

Home | Current Version | Previous Version | Text Only | Print | Product List | Glossary On
Versions: 1 2 3 4 5 6 7 8 9 10 11 12 13 14 15 16 17 18 19 20 21 22 23 24 25 26 27 28 29 30 31 32 33 34 35 36
000
FTUS42 KCAE 212327
TAFDNL
TAF
KDNL 212327Z 2200/2224 15004KT P6SM SCT060
     FM220400 VRB03KT P6SM OVC015
     FM220700 VRB03KT 5SM BR OVC007
     FM221400 17004KT 6SM BR BKN012
     FM221600 19005KT P6SM BKN025
     FM221900 19006KT P6SM SCT035=

USA.gov is the U.S. government's official web portal to all federal, state and local government web resources and services.